• Join FlightAware (Why Join?)
  • Login
  • US Flag 
05:30PM EDT


 

Airport Tracker/Info


-or-


 

Live Flight TrackerFlight Track Log ✈ LOF3416 ✈ 28-May-2013 ✈ KORD - KDAY

Flight Track Log - Related Links

Times and Time Zones

All times are in EDT time to prevent confusion due to time zone crossing. See the LOF3416 flight status page for this flight to view local times or setup timezone preferences in your user account.

Time Position Orientation Groundspeed Altitude Reporting Facility
EDT Latitude Longitude Course Direction KTS MPH feet Rate Location/Type
04:18PM 41.9333 -87.9000 90° East 182 209 1,900  Level Chicago TRACON
04:19PM 41.9333 -87.8167 90° East 250 288 3,700 1,440 Climbing Chicago TRACON
04:20PM 41.9306 -87.7061 92° East 265 305 5,100 1,620 Climbing Chicago Center
04:21PM 41.9472 -87.3273 95° East  Level FlightAware Approximate
04:21PM 41.9336 -87.5878 88° East 302 348 7,300  Level Chicago Center
04:22PM 41.9370 -87.1845 95° East  Level FlightAware Approximate
04:22PM 41.9356 -87.4703 89° East 312 359 9,400  Level Chicago Center
04:23PM 41.9333 -87.0412 90° East  Level FlightAware Approximate
04:23PM 41.9383 -87.3450 88° East 330 380 11,100  Level Chicago Center
04:24PM 41.9425 -87.2083 88° East 361 415 12,100 1,080 Climbing Chicago Center
04:25PM 41.9461 -87.0311 88° East 394 453 13,400 1,140 Climbing Chicago Center
04:26PM 41.9481 -86.8778 89° East 410 472 14,500 960 Climbing Chicago Center
04:27PM 41.9497 -86.7192 89° East 422 486 15,500 1,020 Climbing Chicago Center
04:28PM 41.9522 -86.5469 89° East 427 491 16,700 1,080 Climbing Chicago Center
04:29PM 41.9539 -86.3833 89° East 435 501 17,800 1,140 Climbing Chicago Center
04:30PM 41.9564 -86.2211 89° East 436 502 19,100 1,200 Climbing Chicago Center
04:31PM 41.9594 -86.0578 89° East 437 503 20,400 1,200 Climbing Chicago Center
04:33PM 41.9642 -85.8958 88° East 434 499 21,600 1,200 Climbing Chicago Center
04:34PM 41.9664 -85.7322 89° East 436 502 22,900 660 Climbing Chicago Center
04:35PM 41.8583 -85.6142 141° Southeast 431 496 23,000  Climbing Chicago Center
04:36PM 41.7450 -85.5533 158° South 440 506 23,000  Level Chicago Center
04:37PM 41.6372 -85.5014 160° South 451 519 23,000  Level Chicago Center
04:38PM 41.4936 -85.4353 161° South 450 518 23,000 -300 Level Chicago Center
04:39PM 41.3775 -85.3783 160° South 449 517 22,400 -1,440 Descending Chicago Center
04:40PM 41.1822 -85.2853 160° South 433 498 19,100 -1,920 Descending Indianapolis Center
04:41PM 41.1508 -85.2681 158° South 435 501 18,500 -1,860 Descending Chicago Center
04:42PM 41.0386 -85.2147 160° South 433 498 16,500 -1,560 Descending Chicago Center
04:43PM 40.9444 -85.1278 145° Southeast 420 483 15,300 -780 Descending Chicago Center
04:44PM 40.8567 -84.9814 128° Southeast 424 488 15,000 -180 Descending Chicago Center
04:45PM 40.7842 -84.8581 128° Southeast 426 490 15,000  Level Chicago Center
04:46PM 40.7111 -84.7386 129° Southeast 422 486 15,000  Level Chicago Center
04:47PM 40.6378 -84.6178 129° Southeast 422 486 15,000 -60 Level Chicago Center
04:48PM 40.5794 -84.5208 128° Southeast 427 491 14,900 -360 Descending Indianapolis Center
04:49PM 40.5058 -84.4000 129° Southeast 422 486 14,400 -1,320 Descending Indianapolis Center
04:50PM 40.4083 -84.2908 140° Southeast 390 449 12,100 -2,040 Descending Indianapolis Center
04:51PM 40.3433 -84.2164 139° Southeast 376 433 10,300 -1,800 Descending Indianapolis Center
04:52PM 40.2681 -84.1583 150° Southeast 318 366 8,600 -1,560 Descending Indianapolis Center
04:53PM 40.2019 -84.1156 154° Southeast 276 318 7,100 -1,620 Descending Indianapolis Center
04:54PM 40.1367 -84.0814 158° South 259 298 5,300 -1,620 Descending Indianapolis Center
04:55PM 40.0606 -84.0431 159° South 252 290 3,900 -840 Descending Indianapolis Center
04:56PM 40.0022 -84.0556 189° South 234 269 3,700 -240 Descending Indianapolis Center